sensor_id;sensor_type;location;lat;lon;timestamp;P1;durP1;ratioP1;P2;durP2;ratioP2
25365;SDS011;13315;48.274;-1.900;2023-08-01T00:02:10;18.48;;;17.48;;
25365;SDS011;13315;48.274;-1.900;2023-08-01T00:04:36;27.00;;;25.50;;
25365;SDS011;13315;48.274;-1.900;2023-08-01T00:07:02;26.27;;;24.98;;
25365;SDS011;13315;48.274;-1.900;2023-08-01T00:09:28;22.05;;;20.95;;
25365;SDS011;13315;48.274;-1.900;2023-08-01T00:11:54;17.55;;;16.65;;
25365;SDS011;13315;48.274;-1.900;2023-08-01T00:14:20;16.27;;;15.38;;
25365;SDS011;13315;48.274;-1.900;2023-08-01T00:19:15;13.65;;;12.95;;
25365;SDS011;13315;48.274;-1.900;2023-08-01T00:21:41;12.90;;;12.30;;
25365;SDS011;13315;48.274;-1.900;2023-08-01T00:24:07;14.20;;;13.48;;
25365;SDS011;13315;48.274;-1.900;2023-08-01T00:26:33;14.05;;;13.35;;
25365;SDS011;13315;48.274;-1.900;2023-08-01T00:28:59;15.02;;;14.30;;
25365;SDS011;13315;48.274;-1.900;2023-08-01T00:31:25;14.13;;;13.43;;
25365;SDS011;13315;48.274;-1.900;2023-08-01T00:33:51;15.70;;;14.90;;
25365;SDS011;13315;48.274;-1.900;2023-08-01T00:36:17;15.48;;;14.68;;
25365;SDS011;13315;48.274;-1.900;2023-08-01T00:38:43;17.80;;;16.80;;
25365;SDS011;13315;48.274;-1.900;2023-08-01T00:41:10;17.83;;;16.92;;
25365;SDS011;13315;48.274;-1.900;2023-08-01T00:43:36;19.58;;;18.38;;
25365;SDS011;13315;48.274;-1.900;2023-08-01T00:46:03;15.68;;;14.88;;
25365;SDS011;13315;48.274;-1.900;2023-08-01T00:48:30;16.40;;;15.60;;
25365;SDS011;13315;48.274;-1.900;2023-08-01T00:50:57;18.20;;;17.30;;
25365;SDS011;13315;48.274;-1.900;2023-08-01T00:53:23;20.23;;;19.23;;
25365;SDS011;13315;48.274;-1.900;2023-08-01T00:55:51;19.10;;;18.10;;
25365;SDS011;13315;48.274;-1.900;2023-08-01T00:58:18;24.13;;;22.92;;
25365;SDS011;13315;48.274;-1.900;2023-08-01T01:00:53;22.48;;;21.27;;
25365;SDS011;13315;48.274;-1.900;2023-08-01T01:03:21;23.52;;;22.33;;
25365;SDS011;13315;48.274;-1.900;2023-08-01T01:06:01;24.27;;;22.90;;
25365;SDS011;13315;48.274;-1.900;2023-08-01T01:08:27;24.83;;;23.48;;
25365;SDS011;13315;48.274;-1.900;2023-08-01T01:10:53;22.98;;;21.77;;
25365;SDS011;13315;48.274;-1.900;2023-08-01T01:13:19;26.08;;;24.77;;
25365;SDS011;13315;48.274;-1.900;2023-08-01T01:15:46;25.85;;;24.45;;
25365;SDS011;13315;48.274;-1.900;2023-08-01T01:18:12;22.88;;;21.70;;
25365;SDS011;13315;48.274;-1.900;2023-08-01T01:20:38;23.17;;;21.98;;
25365;SDS011;13315;48.274;-1.900;2023-08-01T01:23:04;23.02;;;21.80;;
25365;SDS011;13315;48.274;-1.900;2023-08-01T01:25:31;21.52;;;20.42;;
25365;SDS011;13315;48.274;-1.900;2023-08-01T01:27:58;23.17;;;21.98;;
25365;SDS011;13315;48.274;-1.900;2023-08-01T01:30:25;20.90;;;19.80;;
25365;SDS011;13315;48.274;-1.900;2023-08-01T01:32:52;23.23;;;21.63;;
25365;SDS011;13315;48.274;-1.900;2023-08-01T01:35:18;22.98;;;21.77;;
25365;SDS011;13315;48.274;-1.900;2023-08-01T01:37:44;20.13;;;19.02;;
25365;SDS011;13315;48.274;-1.900;2023-08-01T01:40:10;21.17;;;20.08;;
25365;SDS011;13315;48.274;-1.900;2023-08-01T01:42:37;25.83;;;24.45;;
25365;SDS011;13315;48.274;-1.900;2023-08-01T01:45:03;25.75;;;24.45;;
25365;SDS011;13315;48.274;-1.900;2023-08-01T01:47:29;38.10;;;36.10;;
25365;SDS011;13315;48.274;-1.900;2023-08-01T01:49:55;37.47;;;35.53;;
25365;SDS011;13315;48.274;-1.900;2023-08-01T01:52:21;39.38;;;37.35;;
25365;SDS011;13315;48.274;-1.900;2023-08-01T01:54:47;41.47;;;39.30;;
25365;SDS011;13315;48.274;-1.900;2023-08-01T01:57:13;35.70;;;33.70;;
25365;SDS011;13315;48.274;-1.900;2023-08-01T01:59:39;37.58;;;35.58;;
25365;SDS011;13315;48.274;-1.900;2023-08-01T02:02:06;40.78;;;38.67;;
25365;SDS011;13315;48.274;-1.900;2023-08-01T02:04:32;41.95;;;39.65;;
25365;SDS011;13315;48.274;-1.900;2023-08-01T02:06:58;33.95;;;32.15;;
25365;SDS011;13315;48.274;-1.900;2023-08-01T02:09:24;34.08;;;32.28;;
25365;SDS011;13315;48.274;-1.900;2023-08-01T02:11:50;31.88;;;30.17;;
25365;SDS011;13315;48.274;-1.900;2023-08-01T02:14:16;26.27;;;24.88;;
25365;SDS011;13315;48.274;-1.900;2023-08-01T02:16:42;28.05;;;26.55;;
25365;SDS011;13315;48.274;-1.900;2023-08-01T02:19:08;25.00;;;23.60;;
25365;SDS011;13315;48.274;-1.900;2023-08-01T02:21:34;23.75;;;22.13;;
25365;SDS011;13315;48.274;-1.900;2023-08-01T02:24:00;29.30;;;27.80;;
25365;SDS011;13315;48.274;-1.900;2023-08-01T02:26:28;25.15;;;23.27;;
25365;SDS011;13315;48.274;-1.900;2023-08-01T02:28:54;25.50;;;24.00;;
25365;SDS011;13315;48.274;-1.900;2023-08-01T02:31:20;27.55;;;26.05;;
25365;SDS011;13315;48.274;-1.900;2023-08-01T02:33:46;32.33;;;30.65;;
25365;SDS011;13315;48.274;-1.900;2023-08-01T02:36:12;26.10;;;24.70;;
25365;SDS011;13315;48.274;-1.900;2023-08-01T02:38:38;24.60;;;23.30;;
25365;SDS011;13315;48.274;-1.900;2023-08-01T02:41:05;23.17;;;22.00;;
25365;SDS011;13315;48.274;-1.900;2023-08-01T02:43:31;24.25;;;22.90;;
25365;SDS011;13315;48.274;-1.900;2023-08-01T02:45:57;25.73;;;24.23;;
25365;SDS011;13315;48.274;-1.900;2023-08-01T02:48:25;25.90;;;24.45;;
25365;SDS011;13315;48.274;-1.900;2023-08-01T02:50:51;23.40;;;22.13;;
25365;SDS011;13315;48.274;-1.900;2023-08-01T02:53:17;23.80;;;22.50;;
25365;SDS011;13315;48.274;-1.900;2023-08-01T02:55:44;21.67;;;20.58;;
25365;SDS011;13315;48.274;-1.900;2023-08-01T02:58:13;22.75;;;21.50;;
25365;SDS011;13315;48.274;-1.900;2023-08-01T03:00:39;23.60;;;22.27;;
25365;SDS011;13315;48.274;-1.900;2023-08-01T03:03:05;21.88;;;20.75;;
25365;SDS011;13315;48.274;-1.900;2023-08-01T03:05:31;23.67;;;22.27;;
25365;SDS011;13315;48.274;-1.900;2023-08-01T03:07:58;23.40;;;22.20;;
25365;SDS011;13315;48.274;-1.900;2023-08-01T03:10:24;22.77;;;21.58;;
25365;SDS011;13315;48.274;-1.900;2023-08-01T03:12:50;21.88;;;20.67;;
25365;SDS011;13315;48.274;-1.900;2023-08-01T03:15:16;24.40;;;23.00;;
25365;SDS011;13315;48.274;-1.900;2023-08-01T03:17:42;23.63;;;22.13;;
25365;SDS011;13315;48.274;-1.900;2023-08-01T03:20:08;24.35;;;22.75;;
25365;SDS011;13315;48.274;-1.900;2023-08-01T03:22:37;24.98;;;23.23;;
25365;SDS011;13315;48.274;-1.900;2023-08-01T03:25:03;25.77;;;24.00;;
25365;SDS011;13315;48.274;-1.900;2023-08-01T03:29:58;23.05;;;21.75;;
25365;SDS011;13315;48.274;-1.900;2023-08-01T03:32:24;21.80;;;20.50;;
25365;SDS011;13315;48.274;-1.900;2023-08-01T03:34:50;22.40;;;21.00;;
25365;SDS011;13315;48.274;-1.900;2023-08-01T03:37:17;22.33;;;21.13;;
25365;SDS011;13315;48.274;-1.900;2023-08-01T03:39:43;21.33;;;20.00;;
25365;SDS011;13315;48.274;-1.900;2023-08-01T03:42:09;22.70;;;21.15;;
25365;SDS011;13315;48.274;-1.900;2023-08-01T03:44:35;21.63;;;20.33;;
25365;SDS011;13315;48.274;-1.900;2023-08-01T03:47:01;23.30;;;21.90;;
25365;SDS011;13315;48.274;-1.900;2023-08-01T03:49:28;22.67;;;21.35;;
25365;SDS011;13315;48.274;-1.900;2023-08-01T03:51:54;24.52;;;23.08;;
25365;SDS011;13315;48.274;-1.900;2023-08-01T03:54:20;23.92;;;22.60;;
25365;SDS011;13315;48.274;-1.900;2023-08-01T03:56:46;23.48;;;21.42;;
25365;SDS011;13315;48.274;-1.900;2023-08-01T03:59:13;22.20;;;20.90;;
25365;SDS011;13315;48.274;-1.900;2023-08-01T04:01:39;20.10;;;18.65;;
25365;SDS011;13315;48.274;-1.900;2023-08-01T04:04:05;19.08;;;17.38;;
25365;SDS011;13315;48.274;-1.900;2023-08-01T04:06:31;19.15;;;17.60;;
25365;SDS011;13315;48.274;-1.900;2023-08-01T04:08:57;17.13;;;16.13;;
25365;SDS011;13315;48.274;-1.900;2023-08-01T04:11:25;16.17;;;15.07;;
25365;SDS011;13315;48.274;-1.900;2023-08-01T04:13:51;13.80;;;13.07;;
25365;SDS011;13315;48.274;-1.900;2023-08-01T04:16:17;12.23;;;11.45;;
25365;SDS011;13315;48.274;-1.900;2023-08-01T04:18:43;14.48;;;13.40;;
25365;SDS011;13315;48.274;-1.900;2023-08-01T04:21:09;13.18;;;12.38;;
25365;SDS011;13315;48.274;-1.900;2023-08-01T04:23:35;14.57;;;13.75;;
25365;SDS011;13315;48.274;-1.900;2023-08-01T04:26:01;14.20;;;13.40;;
25365;SDS011;13315;48.274;-1.900;2023-08-01T04:28:31;12.02;;;11.30;;
25365;SDS011;13315;48.274;-1.900;2023-08-01T04:30:57;11.95;;;11.25;;
25365;SDS011;13315;48.274;-1.900;2023-08-01T04:33:23;13.30;;;12.50;;
25365;SDS011;13315;48.274;-1.900;2023-08-01T04:35:49;15.13;;;13.80;;
25365;SDS011;13315;48.274;-1.900;2023-08-01T04:38:15;15.73;;;14.60;;
25365;SDS011;13315;48.274;-1.900;2023-08-01T04:40:41;15.68;;;14.52;;
25365;SDS011;13315;48.274;-1.900;2023-08-01T04:43:08;17.35;;;16.10;;
25365;SDS011;13315;48.274;-1.900;2023-08-01T04:45:34;16.35;;;15.13;;
25365;SDS011;13315;48.274;-1.900;2023-08-01T04:48:00;13.93;;;13.13;;
25365;SDS011;13315;48.274;-1.900;2023-08-01T04:50:26;14.70;;;13.90;;
25365;SDS011;13315;48.274;-1.900;2023-08-01T04:52:52;13.98;;;13.18;;
25365;SDS011;13315;48.274;-1.900;2023-08-01T04:55:18;14.30;;;13.50;;
25365;SDS011;13315;48.274;-1.900;2023-08-01T04:57:44;12.48;;;11.77;;
25365;SDS011;13315;48.274;-1.900;2023-08-01T05:00:10;13.25;;;12.55;;
25365;SDS011;13315;48.274;-1.900;2023-08-01T05:02:37;14.40;;;13.52;;
25365;SDS011;13315;48.274;-1.900;2023-08-01T05:05:03;14.90;;;13.70;;
25365;SDS011;13315;48.274;-1.900;2023-08-01T05:07:29;14.50;;;13.63;;
25365;SDS011;13315;48.274;-1.900;2023-08-01T05:09:55;14.60;;;13.48;;
25365;SDS011;13315;48.274;-1.900;2023-08-01T05:12:22;17.02;;;15.93;;
25365;SDS011;13315;48.274;-1.900;2023-08-01T05:14:48;15.27;;;14.48;;
25365;SDS011;13315;48.274;-1.900;2023-08-01T05:17:14;22.52;;;21.13;;
25365;SDS011;13315;48.274;-1.900;2023-08-01T05:19:40;21.38;;;20.17;;
25365;SDS011;13315;48.274;-1.900;2023-08-01T05:22:06;19.30;;;18.30;;
25365;SDS011;13315;48.274;-1.900;2023-08-01T05:24:32;18.27;;;17.27;;
25365;SDS011;13315;48.274;-1.900;2023-08-01T05:26:58;16.58;;;15.73;;
25365;SDS011;13315;48.274;-1.900;2023-08-01T05:29:24;15.35;;;14.55;;
25365;SDS011;13315;48.274;-1.900;2023-08-01T05:31:50;15.73;;;14.73;;
25365;SDS011;13315;48.274;-1.900;2023-08-01T05:34:16;12.18;;;11.38;;
25365;SDS011;13315;48.274;-1.900;2023-08-01T05:36:42;11.63;;;10.77;;
25365;SDS011;13315;48.274;-1.900;2023-08-01T05:39:08;12.18;;;11.38;;
25365;SDS011;13315;48.274;-1.900;2023-08-01T05:41:34;11.25;;;10.55;;
25365;SDS011;13315;48.274;-1.900;2023-08-01T05:44:01;9.50;;;8.85;;
25365;SDS011;13315;48.274;-1.900;2023-08-01T05:46:27;10.25;;;8.60;;
25365;SDS011;13315;48.274;-1.900;2023-08-01T05:48:53;9.23;;;8.38;;
25365;SDS011;13315;48.274;-1.900;2023-08-01T05:51:20;9.77;;;9.10;;
25365;SDS011;13315;48.274;-1.900;2023-08-01T05:53:46;8.88;;;8.30;;
25365;SDS011;13315;48.274;-1.900;2023-08-01T05:56:12;8.23;;;7.53;;
25365;SDS011;13315;48.274;-1.900;2023-08-01T05:58:38;8.02;;;7.53;;
25365;SDS011;13315;48.274;-1.900;2023-08-01T06:01:05;7.50;;;6.90;;
25365;SDS011;13315;48.274;-1.900;2023-08-01T06:03:31;6.65;;;6.25;;
25365;SDS011;13315;48.274;-1.900;2023-08-01T06:05:57;7.20;;;6.80;;
25365;SDS011;13315;48.274;-1.900;2023-08-01T06:08:23;6.07;;;5.78;;
25365;SDS011;13315;48.274;-1.900;2023-08-01T06:10:49;6.60;;;6.10;;
25365;SDS011;13315;48.274;-1.900;2023-08-01T06:13:15;6.72;;;6.25;;
25365;SDS011;13315;48.274;-1.900;2023-08-01T06:15:41;7.00;;;6.55;;
25365;SDS011;13315;48.274;-1.900;2023-08-01T06:18:07;6.15;;;5.75;;
25365;SDS011;13315;48.274;-1.900;2023-08-01T06:20:35;6.30;;;5.65;;
25365;SDS011;13315;48.274;-1.900;2023-08-01T06:23:01;6.25;;;5.75;;
25365;SDS011;13315;48.274;-1.900;2023-08-01T06:25:27;6.75;;;6.25;;
25365;SDS011;13315;48.274;-1.900;2023-08-01T06:27:54;6.15;;;5.80;;
25365;SDS011;13315;48.274;-1.900;2023-08-01T06:30:20;5.47;;;5.18;;
25365;SDS011;13315;48.274;-1.900;2023-08-01T06:32:46;7.35;;;6.32;;
25365;SDS011;13315;48.274;-1.900;2023-08-01T06:35:12;6.05;;;5.63;;
25365;SDS011;13315;48.274;-1.900;2023-08-01T06:37:38;5.97;;;5.57;;
25365;SDS011;13315;48.274;-1.900;2023-08-01T06:40:04;10.00;;;6.85;;
25365;SDS011;13315;48.274;-1.900;2023-08-01T06:42:30;6.13;;;5.50;;
25365;SDS011;13315;48.274;-1.900;2023-08-01T06:44:56;7.93;;;6.10;;
25365;SDS011;13315;48.274;-1.900;2023-08-01T06:47:22;5.93;;;5.53;;
25365;SDS011;13315;48.274;-1.900;2023-08-01T06:49:48;6.25;;;5.00;;
25365;SDS011;13315;48.274;-1.900;2023-08-01T06:52:14;5.22;;;4.93;;
25365;SDS011;13315;48.274;-1.900;2023-08-01T06:54:40;4.97;;;4.60;;
25365;SDS011;13315;48.274;-1.900;2023-08-01T06:57:07;4.88;;;4.53;;
25365;SDS011;13315;48.274;-1.900;2023-08-01T06:59:33;4.45;;;4.05;;
25365;SDS011;13315;48.274;-1.900;2023-08-01T07:02:00;4.40;;;4.10;;
25365;SDS011;13315;48.274;-1.900;2023-08-01T07:04:26;10.40;;;9.70;;
25365;SDS011;13315;48.274;-1.900;2023-08-01T07:06:52;4.63;;;3.80;;
25365;SDS011;13315;48.274;-1.900;2023-08-01T07:09:18;6.88;;;3.78;;
25365;SDS011;13315;48.274;-1.900;2023-08-01T07:11:44;4.50;;;4.10;;
25365;SDS011;13315;48.274;-1.900;2023-08-01T07:14:10;4.00;;;3.55;;
25365;SDS011;13315;48.274;-1.900;2023-08-01T07:16:38;4.40;;;3.70;;
25365;SDS011;13315;48.274;-1.900;2023-08-01T07:19:04;4.45;;;3.08;;
25365;SDS011;13315;48.274;-1.900;2023-08-01T07:21:30;3.22;;;2.97;;
25365;SDS011;13315;48.274;-1.900;2023-08-01T07:23:56;3.53;;;3.33;;
25365;SDS011;13315;48.274;-1.900;2023-08-01T07:26:23;4.70;;;4.30;;
25365;SDS011;13315;48.274;-1.900;2023-08-01T07:28:49;4.88;;;3.65;;
25365;SDS011;13315;48.274;-1.900;2023-08-01T07:31:15;4.88;;;3.53;;
25365;SDS011;13315;48.274;-1.900;2023-08-01T07:33:41;4.72;;;4.05;;
25365;SDS011;13315;48.274;-1.900;2023-08-01T07:36:07;3.90;;;3.60;;
25365;SDS011;13315;48.274;-1.900;2023-08-01T07:38:33;6.78;;;3.63;;
25365;SDS011;13315;48.274;-1.900;2023-08-01T07:41:05;3.55;;;3.35;;
25365;SDS011;13315;48.274;-1.900;2023-08-01T07:43:32;5.05;;;3.72;;
25365;SDS011;13315;48.274;-1.900;2023-08-01T07:45:59;3.90;;;3.60;;
25365;SDS011;13315;48.274;-1.900;2023-08-01T07:48:25;9.35;;;5.28;;
25365;SDS011;13315;48.274;-1.900;2023-08-01T07:50:51;4.60;;;4.00;;
25365;SDS011;13315;48.274;-1.900;2023-08-01T07:53:17;4.07;;;3.85;;
25365;SDS011;13315;48.274;-1.900;2023-08-01T07:55:44;7.38;;;4.28;;
25365;SDS011;13315;48.274;-1.900;2023-08-01T07:58:10;4.22;;;3.83;;
25365;SDS011;13315;48.274;-1.900;2023-08-01T08:00:36;5.70;;;4.50;;
25365;SDS011;13315;48.274;-1.900;2023-08-01T08:03:02;4.95;;;3.88;;
25365;SDS011;13315;48.274;-1.900;2023-08-01T08:05:28;3.88;;;3.45;;
25365;SDS011;13315;48.274;-1.900;2023-08-01T08:07:54;4.65;;;3.88;;
25365;SDS011;13315;48.274;-1.900;2023-08-01T08:10:20;9.40;;;4.55;;
25365;SDS011;13315;48.274;-1.900;2023-08-01T08:12:46;2.95;;;2.75;;
25365;SDS011;13315;48.274;-1.900;2023-08-01T08:15:12;4.90;;;3.28;;
25365;SDS011;13315;48.274;-1.900;2023-08-01T08:17:41;4.20;;;3.90;;
25365;SDS011;13315;48.274;-1.900;2023-08-01T08:20:07;6.50;;;4.07;;
25365;SDS011;13315;48.274;-1.900;2023-08-01T08:22:33;4.50;;;3.92;;
25365;SDS011;13315;48.274;-1.900;2023-08-01T08:24:59;4.80;;;3.95;;
25365;SDS011;13315;48.274;-1.900;2023-08-01T08:27:25;7.43;;;3.25;;
25365;SDS011;13315;48.274;-1.900;2023-08-01T08:29:51;3.92;;;3.00;;
25365;SDS011;13315;48.274;-1.900;2023-08-01T08:32:17;4.65;;;4.25;;
25365;SDS011;13315;48.274;-1.900;2023-08-01T08:34:43;6.85;;;4.40;;
25365;SDS011;13315;48.274;-1.900;2023-08-01T08:37:09;6.25;;;3.92;;
25365;SDS011;13315;48.274;-1.900;2023-08-01T08:39:36;3.75;;;3.42;;
25365;SDS011;13315;48.274;-1.900;2023-08-01T08:42:02;3.30;;;3.10;;
25365;SDS011;13315;48.274;-1.900;2023-08-01T08:44:30;6.00;;;3.53;;
25365;SDS011;13315;48.274;-1.900;2023-08-01T08:47:00;4.32;;;4.03;;
25365;SDS011;13315;48.274;-1.900;2023-08-01T08:49:29;3.20;;;2.97;;
25365;SDS011;13315;48.274;-1.900;2023-08-01T08:51:55;7.53;;;3.88;;
25365;SDS011;13315;48.274;-1.900;2023-08-01T08:54:21;4.82;;;3.35;;
25365;SDS011;13315;48.274;-1.900;2023-08-01T08:56:48;3.65;;;3.35;;
25365;SDS011;13315;48.274;-1.900;2023-08-01T08:59:14;3.90;;;3.45;;
25365;SDS011;13315;48.274;-1.900;2023-08-01T09:01:40;3.28;;;2.97;;
25365;SDS011;13315;48.274;-1.900;2023-08-01T09:04:07;5.22;;;3.63;;
25365;SDS011;13315;48.274;-1.900;2023-08-01T09:06:46;4.95;;;4.03;;
25365;SDS011;13315;48.274;-1.900;2023-08-01T09:09:14;4.75;;;4.13;;
25365;SDS011;13315;48.274;-1.900;2023-08-01T09:11:44;3.75;;;3.42;;
25365;SDS011;13315;48.274;-1.900;2023-08-01T09:14:10;4.60;;;4.07;;
25365;SDS011;13315;48.274;-1.900;2023-08-01T09:16:36;3.40;;;3.10;;
25365;SDS011;13315;48.274;-1.900;2023-08-01T09:19:02;3.90;;;2.95;;
25365;SDS011;13315;48.274;-1.900;2023-08-01T09:21:31;3.60;;;3.33;;
25365;SDS011;13315;48.274;-1.900;2023-08-01T09:24:13;3.33;;;3.03;;
25365;SDS011;13315;48.274;-1.900;2023-08-01T09:26:40;11.63;;;3.97;;
25365;SDS011;13315;48.274;-1.900;2023-08-01T09:29:06;3.25;;;3.05;;
25365;SDS011;13315;48.274;-1.900;2023-08-01T09:31:36;4.32;;;3.75;;
25365;SDS011;13315;48.274;-1.900;2023-08-01T09:34:02;3.95;;;3.55;;
25365;SDS011;13315;48.274;-1.900;2023-08-01T09:36:30;4.32;;;3.92;;
25365;SDS011;13315;48.274;-1.900;2023-08-01T09:39:00;6.05;;;3.13;;
25365;SDS011;13315;48.274;-1.900;2023-08-01T09:41:26;4.63;;;3.33;;
25365;SDS011;13315;48.274;-1.900;2023-08-01T09:43:52;5.10;;;3.10;;
25365;SDS011;13315;48.274;-1.900;2023-08-01T09:46:19;6.82;;;3.70;;
25365;SDS011;13315;48.274;-1.900;2023-08-01T09:48:45;3.08;;;2.88;;
25365;SDS011;13315;48.274;-1.900;2023-08-01T09:51:12;2.83;;;2.65;;
25365;SDS011;13315;48.274;-1.900;2023-08-01T09:53:48;3.55;;;2.97;;
25365;SDS011;13315;48.274;-1.900;2023-08-01T09:56:21;3.20;;;2.90;;
25365;SDS011;13315;48.274;-1.900;2023-08-01T09:58:47;3.30;;;3.00;;
25365;SDS011;13315;48.274;-1.900;2023-08-01T10:01:14;5.15;;;3.35;;
25365;SDS011;13315;48.274;-1.900;2023-08-01T10:03:42;3.10;;;2.90;;
25365;SDS011;13315;48.274;-1.900;2023-08-01T10:06:10;4.40;;;2.80;;
25365;SDS011;13315;48.274;-1.900;2023-08-01T10:08:37;5.32;;;2.63;;
25365;SDS011;13315;48.274;-1.900;2023-08-01T10:11:04;2.65;;;2.42;;
25365;SDS011;13315;48.274;-1.900;2023-08-01T10:13:30;3.35;;;3.10;;
25365;SDS011;13315;48.274;-1.900;2023-08-01T10:15:57;3.20;;;2.88;;
25365;SDS011;13315;48.274;-1.900;2023-08-01T10:18:23;3.17;;;2.97;;
25365;SDS011;13315;48.274;-1.900;2023-08-01T10:20:50;2.90;;;2.70;;
25365;SDS011;13315;48.274;-1.900;2023-08-01T10:23:17;4.03;;;2.63;;
25365;SDS011;13315;48.274;-1.900;2023-08-01T10:25:43;3.60;;;2.80;;
25365;SDS011;13315;48.274;-1.900;2023-08-01T10:28:09;3.00;;;2.80;;
25365;SDS011;13315;48.274;-1.900;2023-08-01T10:30:36;5.32;;;2.95;;
25365;SDS011;13315;48.274;-1.900;2023-08-01T10:33:02;4.40;;;2.80;;
25365;SDS011;13315;48.274;-1.900;2023-08-01T10:35:32;3.10;;;2.90;;
25365;SDS011;13315;48.274;-1.900;2023-08-01T10:38:08;3.05;;;2.83;;
25365;SDS011;13315;48.274;-1.900;2023-08-01T10:40:35;2.70;;;2.50;;
25365;SDS011;13315;48.274;-1.900;2023-08-01T10:43:01;4.13;;;2.70;;
25365;SDS011;13315;48.274;-1.900;2023-08-01T10:45:27;3.08;;;2.88;;
25365;SDS011;13315;48.274;-1.900;2023-08-01T10:48:05;2.25;;;2.15;;
25365;SDS011;13315;48.274;-1.900;2023-08-01T10:50:31;2.90;;;2.60;;
25365;SDS011;13315;48.274;-1.900;2023-08-01T10:53:01;2.70;;;2.50;;
25365;SDS011;13315;48.274;-1.900;2023-08-01T10:55:37;2.97;;;2.72;;
25365;SDS011;13315;48.274;-1.900;2023-08-01T10:58:04;5.03;;;2.60;;
25365;SDS011;13315;48.274;-1.900;2023-08-01T11:00:30;2.67;;;2.40;;
25365;SDS011;13315;48.274;-1.900;2023-08-01T11:02:56;3.05;;;2.17;;
25365;SDS011;13315;48.274;-1.900;2023-08-01T11:05:22;2.40;;;2.20;;
25365;SDS011;13315;48.274;-1.900;2023-08-01T11:07:56;3.28;;;2.20;;
25365;SDS011;13315;48.274;-1.900;2023-08-01T11:10:24;3.03;;;2.30;;
25365;SDS011;13315;48.274;-1.900;2023-08-01T11:12:50;7.05;;;2.78;;
25365;SDS011;13315;48.274;-1.900;2023-08-01T11:15:18;2.67;;;2.47;;
25365;SDS011;13315;48.274;-1.900;2023-08-01T11:17:47;2.67;;;2.47;;
25365;SDS011;13315;48.274;-1.900;2023-08-01T11:20:14;2.72;;;2.53;;
25365;SDS011;13315;48.274;-1.900;2023-08-01T11:22:51;5.85;;;3.08;;
25365;SDS011;13315;48.274;-1.900;2023-08-01T11:25:17;2.20;;;2.10;;
25365;SDS011;13315;48.274;-1.900;2023-08-01T11:27:44;2.20;;;2.08;;
25365;SDS011;13315;48.274;-1.900;2023-08-01T11:30:10;6.18;;;3.13;;
25365;SDS011;13315;48.274;-1.900;2023-08-01T11:32:36;3.47;;;2.40;;
25365;SDS011;13315;48.274;-1.900;2023-08-01T11:35:03;2.25;;;2.05;;
25365;SDS011;13315;48.274;-1.900;2023-08-01T11:37:29;2.85;;;2.65;;
25365;SDS011;13315;48.274;-1.900;2023-08-01T11:39:56;2.42;;;2.25;;
25365;SDS011;13315;48.274;-1.900;2023-08-01T11:42:22;5.32;;;2.60;;
25365;SDS011;13315;48.274;-1.900;2023-08-01T11:44:48;2.75;;;2.55;;
25365;SDS011;13315;48.274;-1.900;2023-08-01T11:47:15;3.22;;;2.50;;
25365;SDS011;13315;48.274;-1.900;2023-08-01T11:49:45;2.40;;;2.30;;
25365;SDS011;13315;48.274;-1.900;2023-08-01T11:52:21;2.85;;;2.33;;
25365;SDS011;13315;48.274;-1.900;2023-08-01T11:54:47;8.23;;;3.92;;
25365;SDS011;13315;48.274;-1.900;2023-08-01T11:57:13;2.63;;;2.15;;
25365;SDS011;13315;48.274;-1.900;2023-08-01T11:59:51;4.72;;;2.53;;
25365;SDS011;13315;48.274;-1.900;2023-08-01T12:04:45;5.07;;;2.60;;
25365;SDS011;13315;48.274;-1.900;2023-08-01T12:07:12;2.42;;;2.22;;
25365;SDS011;13315;48.274;-1.900;2023-08-01T12:09:39;2.73;;;2.53;;
25365;SDS011;13315;48.274;-1.900;2023-08-01T12:12:05;2.33;;;2.22;;
25365;SDS011;13315;48.274;-1.900;2023-08-01T12:14:32;2.60;;;2.40;;
25365;SDS011;13315;48.274;-1.900;2023-08-01T12:16:58;2.75;;;2.30;;
25365;SDS011;13315;48.274;-1.900;2023-08-01T12:19:24;3.33;;;3.03;;
25365;SDS011;13315;48.274;-1.900;2023-08-01T12:21:50;5.20;;;2.60;;
25365;SDS011;13315;48.274;-1.900;2023-08-01T12:24:16;2.60;;;2.40;;
25365;SDS011;13315;48.274;-1.900;2023-08-01T12:26:42;3.90;;;2.33;;
25365;SDS011;13315;48.274;-1.900;2023-08-01T12:29:08;2.33;;;2.22;;
25365;SDS011;13315;48.274;-1.900;2023-08-01T12:31:35;2.67;;;2.47;;
25365;SDS011;13315;48.274;-1.900;2023-08-01T12:34:01;2.75;;;2.50;;
25365;SDS011;13315;48.274;-1.900;2023-08-01T12:36:27;4.20;;;2.88;;
25365;SDS011;13315;48.274;-1.900;2023-08-01T12:38:53;2.38;;;2.17;;
25365;SDS011;13315;48.274;-1.900;2023-08-01T12:41:19;3.03;;;2.72;;
25365;SDS011;13315;48.274;-1.900;2023-08-01T12:43:45;2.38;;;2.28;;
25365;SDS011;13315;48.274;-1.900;2023-08-01T12:46:11;2.50;;;2.30;;
25365;SDS011;13315;48.274;-1.900;2023-08-01T12:48:38;3.17;;;2.97;;
25365;SDS011;13315;48.274;-1.900;2023-08-01T12:51:04;2.58;;;2.25;;
25365;SDS011;13315;48.274;-1.900;2023-08-01T12:53:30;2.15;;;2.05;;
25365;SDS011;13315;48.274;-1.900;2023-08-01T12:55:56;4.30;;;2.92;;
25365;SDS011;13315;48.274;-1.900;2023-08-01T12:58:22;2.70;;;2.60;;
25365;SDS011;13315;48.274;-1.900;2023-08-01T13:00:48;2.40;;;2.30;;
25365;SDS011;13315;48.274;-1.900;2023-08-01T13:03:15;3.20;;;2.90;;
25365;SDS011;13315;48.274;-1.900;2023-08-01T13:05:41;2.85;;;2.72;;
25365;SDS011;13315;48.274;-1.900;2023-08-01T13:08:08;2.72;;;2.53;;
25365;SDS011;13315;48.274;-1.900;2023-08-01T13:10:35;3.10;;;2.90;;
25365;SDS011;13315;48.274;-1.900;2023-08-01T13:13:01;2.85;;;2.50;;
25365;SDS011;13315;48.274;-1.900;2023-08-01T13:15:27;2.35;;;2.25;;
25365;SDS011;13315;48.274;-1.900;2023-08-01T13:17:53;3.20;;;2.90;;
25365;SDS011;13315;48.274;-1.900;2023-08-01T13:20:20;2.92;;;2.72;;
25365;SDS011;13315;48.274;-1.900;2023-08-01T13:22:48;3.03;;;2.83;;
25365;SDS011;13315;48.274;-1.900;2023-08-01T13:25:14;3.30;;;3.10;;
25365;SDS011;13315;48.274;-1.900;2023-08-01T13:27:41;3.55;;;3.30;;
25365;SDS011;13315;48.274;-1.900;2023-08-01T13:30:07;3.55;;;3.30;;
25365;SDS011;13315;48.274;-1.900;2023-08-01T13:32:33;3.67;;;3.28;;
25365;SDS011;13315;48.274;-1.900;2023-08-01T13:34:59;3.03;;;2.92;;
25365;SDS011;13315;48.274;-1.900;2023-08-01T13:37:26;3.17;;;2.90;;
25365;SDS011;13315;48.274;-1.900;2023-08-01T13:39:54;3.67;;;3.38;;
25365;SDS011;13315;48.274;-1.900;2023-08-01T13:42:20;2.88;;;2.67;;
25365;SDS011;13315;48.274;-1.900;2023-08-01T13:44:46;2.80;;;2.60;;
25365;SDS011;13315;48.274;-1.900;2023-08-01T13:47:12;2.83;;;2.63;;
25365;SDS011;13315;48.274;-1.900;2023-08-01T13:49:38;3.45;;;2.63;;
25365;SDS011;13315;48.274;-1.900;2023-08-01T13:52:04;2.80;;;2.60;;
25365;SDS011;13315;48.274;-1.900;2023-08-01T13:54:31;3.08;;;2.50;;
25365;SDS011;13315;48.274;-1.900;2023-08-01T13:56:57;3.13;;;2.83;;
25365;SDS011;13315;48.274;-1.900;2023-08-01T13:59:23;3.55;;;3.13;;
25365;SDS011;13315;48.274;-1.900;2023-08-01T14:01:49;4.05;;;2.60;;
25365;SDS011;13315;48.274;-1.900;2023-08-01T14:04:15;3.10;;;2.80;;
25365;SDS011;13315;48.274;-1.900;2023-08-01T14:06:41;4.32;;;2.95;;
25365;SDS011;13315;48.274;-1.900;2023-08-01T14:09:08;3.08;;;2.47;;
25365;SDS011;13315;48.274;-1.900;2023-08-01T14:11:35;6.78;;;3.10;;
25365;SDS011;13315;48.274;-1.900;2023-08-01T14:14:01;6.47;;;3.28;;
25365;SDS011;13315;48.274;-1.900;2023-08-01T14:16:27;2.67;;;2.47;;
25365;SDS011;13315;48.274;-1.900;2023-08-01T14:18:53;3.15;;;2.85;;
25365;SDS011;13315;48.274;-1.900;2023-08-01T14:21:19;3.63;;;3.33;;
25365;SDS011;13315;48.274;-1.900;2023-08-01T14:23:46;7.63;;;4.38;;
25365;SDS011;13315;48.274;-1.900;2023-08-01T14:26:12;3.10;;;2.90;;
25365;SDS011;13315;48.274;-1.900;2023-08-01T14:28:38;6.05;;;3.10;;